createdAt,value
2022-09-24T00:00:52.399Z,98991.56
2022-09-24T00:03:59.052Z,98993.59
2022-09-24T00:07:01.088Z,98987.31
2022-09-24T00:10:03.221Z,98998.44
2022-09-24T00:13:08.727Z,99000.41
2022-09-24T00:16:12.634Z,98991.94
2022-09-24T00:19:14.838Z,98995.28
2022-09-24T00:22:16.906Z,98995.88
2022-09-24T00:25:37.222Z,98999.84
2022-09-24T00:28:39.254Z,98987.38
2022-09-24T00:31:41.517Z,98997.28
2022-09-24T00:34:43.631Z,98993.34
2022-09-24T00:37:45.694Z,98993.50
2022-09-24T00:40:47.824Z,98982.63
2022-09-24T00:43:50.262Z,98990.25
2022-09-24T00:46:52.345Z,98981.38
2022-09-24T00:50:19.499Z,98990.03
2022-09-24T00:53:23.160Z,98993.19
2022-09-24T00:56:25.402Z,98992.47
2022-09-24T00:59:27.455Z,98990.81
2022-09-24T01:02:31.045Z,98997.59
2022-09-24T01:05:33.145Z,98998.56
2022-09-24T01:08:35.203Z,99001.28
2022-09-24T01:12:01.285Z,99000.84
2022-09-24T01:15:28.898Z,99006.69
2022-09-24T01:18:39.951Z,99001.47
2022-09-24T01:21:49.218Z,98999.84
2022-09-24T01:25:02.853Z,99001.69
2022-09-24T01:28:34.931Z,98996.78
2022-09-24T01:31:47.062Z,98997.50
2022-09-24T01:35:02.250Z,98997.94
2022-09-24T01:38:14.283Z,98988.88
2022-09-24T01:41:16.439Z,98987.06
2022-09-24T01:44:18.778Z,98986.44
2022-09-24T01:47:33.517Z,99002.84
2022-09-24T01:51:02.492Z,98995.50
2022-09-24T01:54:07.947Z,98989.91
2022-09-24T01:57:15.574Z,98995.72
2022-09-24T02:00:19.192Z,98999.78
2022-09-24T02:03:26.841Z,98996.16
2022-09-24T02:06:36.214Z,98989.88
2022-09-24T02:09:41.078Z,98984.94
2022-09-24T02:12:44.504Z,98988.75
2022-09-24T02:15:49.596Z,98996.78
2022-09-24T02:18:54.217Z,99003.22
2022-09-24T02:21:56.299Z,98977.09
2022-09-24T02:24:59.908Z,98988.03
2022-09-24T02:28:03.299Z,99003.44
2022-09-24T02:31:18.820Z,98992.59
2022-09-24T02:34:27.979Z,99000.34
2022-09-24T02:37:34.132Z,98992.22
2022-09-24T02:40:36.407Z,98998.25
2022-09-24T02:43:38.635Z,98999.28
2022-09-24T02:46:41.761Z,98997.56
2022-09-24T02:49:43.986Z,99005.25
2022-09-24T02:52:46.041Z,99000.28
2022-09-24T02:55:48.894Z,99005.28
2022-09-24T02:58:50.980Z,99007.81
2022-09-24T03:01:53.294Z,99004.47
2022-09-24T03:04:55.743Z,99000.78
2022-09-24T03:07:59.199Z,99007.72
2022-09-24T03:11:01.326Z,99003.66
2022-09-24T03:14:03.440Z,99011.41
2022-09-24T03:17:05.515Z,99004.44
2022-09-24T03:20:08.196Z,99003.22
2022-09-24T03:23:10.245Z,99004.75
2022-09-24T03:26:12.589Z,99006.63
2022-09-24T03:29:14.698Z,99007.38
2022-09-24T03:32:16.772Z,98998.72
2022-09-24T03:35:19.728Z,99003.44
2022-09-24T03:38:21.783Z,99012.88
2022-09-24T03:41:27.693Z,99011.47
2022-09-24T03:44:29.864Z,99011.75
2022-09-24T03:47:32.388Z,99013.91
2022-09-24T03:50:38.040Z,99012.72
2022-09-24T03:53:40.267Z,99021.84
2022-09-24T03:56:43.171Z,99012.44
2022-09-24T03:59:45.655Z,99015.91
2022-09-24T04:02:47.809Z,99021.59
2022-09-24T04:05:51.419Z,99024.06
2022-09-24T04:08:53.661Z,99028.78
2022-09-24T04:11:56.259Z,99031.50
2022-09-24T04:14:58.380Z,99032.78
2022-09-24T04:18:00.730Z,99032.13
2022-09-24T04:21:02.912Z,99036.06
2022-09-24T04:24:05.510Z,99037.78
2022-09-24T04:27:07.680Z,99036.31
2022-09-24T04:30:14.011Z,99038.81
2022-09-24T04:33:16.552Z,99041.53
2022-09-24T04:36:18.646Z,99040.44
2022-09-24T04:39:26.566Z,99033.66
2022-09-24T04:42:28.708Z,99045.78
2022-09-24T04:45:31.307Z,99049.72
2022-09-24T04:48:34.607Z,99039.25
2022-09-24T04:51:36.806Z,99040.72
2022-09-24T04:54:38.859Z,99042.94
2022-09-24T04:57:41.355Z,99037.09
2022-09-24T05:00:43.559Z,99043.09
2022-09-24T05:03:45.739Z,99043.38
2022-09-24T05:06:48.453Z,99049.84
2022-09-24T05:09:50.592Z,99051.34
2022-09-24T05:12:53.014Z,99068.06
2022-09-24T05:15:55.124Z,99070.16
2022-09-24T05:18:58.183Z,99070.94
2022-09-24T05:22:00.346Z,99075.34
2022-09-24T05:25:02.416Z,99078.81
2022-09-24T05:28:04.543Z,99081.78
2022-09-24T05:31:06.645Z,99082.38
2022-09-24T05:34:08.911Z,99085.03
2022-09-24T05:37:11.383Z,99081.66
2022-09-24T05:40:32.159Z,99085.66
2022-09-24T05:43:34.356Z,99083.25
2022-09-24T05:46:36.646Z,99086.72
2022-09-24T05:49:39.356Z,99098.53
2022-09-24T05:52:41.699Z,99092.06
2022-09-24T05:55:44.087Z,99103.25
2022-09-24T05:58:50.211Z,99097.31
2022-09-24T06:01:52.517Z,99110.53
2022-09-24T06:04:54.679Z,99106.00
2022-09-24T06:07:56.739Z,99104.19
2022-09-24T06:11:05.300Z,99106.34
2022-09-24T06:14:08.618Z,99109.03
2022-09-24T06:17:11.033Z,99110.44
2022-09-24T06:20:13.912Z,99121.78
2022-09-24T06:23:15.992Z,99114.19
2022-09-24T06:26:18.937Z,99126.13
2022-09-24T06:29:20.981Z,99129.63
2022-09-24T06:32:24.687Z,99131.84
2022-09-24T06:35:26.742Z,99139.97
2022-09-24T06:38:29.182Z,99144.22
2022-09-24T06:41:31.227Z,99139.97
2022-09-24T06:44:34.593Z,99148.03
2022-09-24T06:47:36.668Z,99148.66
2022-09-24T06:50:41.989Z,99164.50
2022-09-24T06:53:44.108Z,99152.75
2022-09-24T06:56:46.722Z,99168.84
2022-09-24T06:59:48.809Z,99168.13
2022-09-24T07:02:52.242Z,99182.59
2022-09-24T07:05:54.733Z,99184.13
2022-09-24T07:08:57.689Z,99179.38
2022-09-24T07:12:03.091Z,99179.66
2022-09-24T07:15:05.928Z,99182.41
2022-09-24T07:18:08.580Z,99173.19
2022-09-24T07:21:10.688Z,99184.38
2022-09-24T07:24:12.832Z,99189.63
2022-09-24T07:27:15.046Z,99190.63
2022-09-24T07:30:17.327Z,99188.94
2022-09-24T07:33:19.457Z,99188.16
2022-09-24T07:36:21.903Z,99197.50
2022-09-24T07:39:24.823Z,99205.13
2022-09-24T07:42:27.971Z,99208.63
2022-09-24T07:45:31.518Z,99203.78
2022-09-24T07:48:33.594Z,99198.22
2022-09-24T07:51:36.402Z,99205.16
2022-09-24T07:54:38.658Z,99212.69
2022-09-24T07:57:40.705Z,99199.81
2022-09-24T08:00:42.934Z,99212.91
2022-09-24T08:03:47.969Z,99216.34
2022-09-24T08:06:50.075Z,99220.78
2022-09-24T08:09:52.125Z,99226.19
2022-09-24T08:12:54.355Z,99234.00
2022-09-24T08:15:59.560Z,99233.47
2022-09-24T08:19:01.687Z,99230.34
2022-09-24T08:22:05.397Z,99234.38
2022-09-24T08:25:07.974Z,99234.19
2022-09-24T08:28:13.206Z,99241.69
2022-09-24T08:31:16.302Z,99243.13
2022-09-24T08:34:18.448Z,99249.50
2022-09-24T08:37:20.517Z,99242.81
2022-09-24T08:40:26.477Z,99257.81
2022-09-24T08:44:08.539Z,99263.38
2022-09-24T08:47:48.340Z,99260.13
2022-09-24T08:51:00.798Z,99274.00
2022-09-24T08:54:10.686Z,99278.72
2022-09-24T08:57:14.709Z,99287.88
2022-09-24T09:00:16.889Z,99293.66
2022-09-24T09:03:37.220Z,99299.88
2022-09-24T09:06:57.377Z,99310.41
2022-09-24T09:10:08.181Z,99317.19
2022-09-24T09:13:24.160Z,99315.50
2022-09-24T09:16:34.039Z,99320.31
2022-09-24T09:19:36.122Z,99336.59
2022-09-24T09:22:50.208Z,99331.22
2022-09-24T09:25:56.976Z,99328.31
2022-09-24T09:29:01.054Z,99334.94
2022-09-24T09:32:25.176Z,99337.44
2022-09-24T09:35:58.453Z,99337.31
2022-09-24T09:39:18.441Z,99336.03
2022-09-24T09:42:36.029Z,99339.53
2022-09-24T09:46:15.418Z,99342.19
2022-09-24T09:49:17.557Z,99343.19
2022-09-24T09:52:25.895Z,99345.13
2022-09-24T09:55:36.141Z,99342.72
2022-09-24T09:58:42.558Z,99346.59
2022-09-24T10:01:46.911Z,99348.03
2022-09-24T10:04:53.204Z,99332.44
2022-09-24T10:07:58.644Z,99343.56
2022-09-24T10:11:01.765Z,99341.72
2022-09-24T10:14:05.099Z,99349.47
2022-09-24T10:17:12.165Z,99353.06
2022-09-24T10:20:29.404Z,99356.81
2022-09-24T10:23:48.590Z,99351.88
2022-09-24T10:26:50.717Z,99346.53
2022-09-24T10:30:15.646Z,99359.31
2022-09-24T10:33:18.705Z,99351.03
2022-09-24T10:36:28.731Z,99349.78
2022-09-24T10:39:31.046Z,99364.38
2022-09-24T10:42:33.101Z,99361.19
2022-09-24T10:46:13.112Z,99356.91
2022-09-24T10:50:02.909Z,99368.94
2022-09-24T10:53:08.967Z,99374.50
2022-09-24T10:56:42.303Z,99370.00
2022-09-24T11:00:14.379Z,99382.00
2022-09-24T11:03:19.238Z,99383.97
2022-09-24T11:06:49.266Z,99384.91
2022-09-24T11:10:03.907Z,99385.81
2022-09-24T11:13:36.040Z,99385.69
2022-09-24T11:16:44.012Z,99401.25
2022-09-24T11:20:29.834Z,99396.06
2022-09-24T11:24:09.611Z,99403.63
2022-09-24T11:27:36.272Z,99397.19
2022-09-24T11:30:59.101Z,99401.88
2022-09-24T11:34:16.926Z,99403.25
2022-09-24T11:37:56.042Z,99408.59
2022-09-24T11:41:25.818Z,99410.31
2022-09-24T11:45:02.001Z,99417.56
2022-09-24T11:48:31.624Z,99407.72
2022-09-24T11:52:00.568Z,99413.78
2022-09-24T11:55:31.787Z,99412.31
2022-09-24T11:58:59.012Z,99416.13
2022-09-24T12:02:17.991Z,99415.69
2022-09-24T12:05:30.721Z,99413.19
2022-09-24T12:08:44.604Z,99414.72
2022-09-24T12:11:50.380Z,99398.94
2022-09-24T12:15:02.794Z,99411.72
2022-09-24T12:18:12.727Z,99405.88
2022-09-24T12:21:22.855Z,99403.34
2022-09-24T12:24:37.903Z,99410.66
2022-09-24T12:27:40.342Z,99400.78
2022-09-24T12:31:12.469Z,99399.94
2022-09-24T12:34:31.882Z,99395.66
2022-09-24T12:37:38.695Z,99392.88
2022-09-24T12:41:11.681Z,99408.00
2022-09-24T12:44:26.701Z,99409.06
2022-09-24T12:47:33.715Z,99416.25
2022-09-24T12:50:35.819Z,99418.63
2022-09-24T12:53:41.510Z,99419.34
2022-09-24T12:56:43.684Z,99415.34
2022-09-24T12:59:48.683Z,99409.97
2022-09-24T13:02:51.558Z,99409.22
2022-09-24T13:05:53.863Z,99405.84
2022-09-24T13:08:55.949Z,99404.59
2022-09-24T13:12:22.703Z,99401.50
2022-09-24T13:15:35.896Z,99399.91
2022-09-24T13:18:38.044Z,99401.16
2022-09-24T13:21:40.185Z,99402.56
2022-09-24T13:24:51.336Z,99387.84
2022-09-24T13:28:02.272Z,99398.66
2022-09-24T13:31:23.925Z,99395.00
2022-09-24T13:34:30.003Z,99392.38
2022-09-24T13:37:40.323Z,99401.09
2022-09-24T13:40:48.614Z,99408.69
2022-09-24T13:44:23.745Z,99415.06
2022-09-24T13:47:49.908Z,99405.06
2022-09-24T13:50:52.512Z,99399.59
2022-09-24T13:54:23.542Z,99419.63
2022-09-24T13:57:29.676Z,99423.75
2022-09-24T14:00:32.396Z,99422.06
2022-09-24T14:03:35.732Z,99418.59
2022-09-24T14:06:43.456Z,99427.03
2022-09-24T14:09:47.722Z,99430.06
2022-09-24T14:13:24.364Z,99422.97
2022-09-24T14:16:26.648Z,99416.47
2022-09-24T14:19:28.934Z,99415.91
2022-09-24T14:22:36.029Z,99407.97
2022-09-24T14:25:38.078Z,99408.00
2022-09-24T14:28:40.164Z,99414.97
2022-09-24T14:31:50.673Z,99413.69
2022-09-24T14:34:55.218Z,99416.66
2022-09-24T14:38:17.693Z,99429.72
2022-09-24T14:41:23.355Z,99432.63
2022-09-24T14:44:29.000Z,99425.03
2022-09-24T14:47:33.925Z,99417.63
2022-09-24T14:50:40.591Z,99433.97
2022-09-24T14:53:42.707Z,99426.69
2022-09-24T14:56:45.285Z,99429.13
2022-09-24T14:59:47.548Z,99427.06
2022-09-24T15:03:13.307Z,99426.06
2022-09-24T15:06:20.952Z,99420.91
2022-09-24T15:09:30.523Z,99423.84
2022-09-24T15:12:35.504Z,99421.03
2022-09-24T15:15:37.626Z,99404.81
2022-09-24T15:18:39.716Z,99417.84
2022-09-24T15:21:41.947Z,99427.34
2022-09-24T15:24:44.037Z,99417.75
2022-09-24T15:27:46.225Z,99423.56
2022-09-24T15:30:48.563Z,99417.66
2022-09-24T15:33:50.848Z,99426.66
2022-09-24T15:36:59.366Z,99429.84
2022-09-24T15:40:16.767Z,99438.59
2022-09-24T15:43:24.106Z,99438.69
2022-09-24T15:46:26.495Z,99447.66
2022-09-24T15:49:28.603Z,99446.22
2022-09-24T15:52:31.955Z,99461.28
2022-09-24T15:55:36.282Z,99466.19
2022-09-24T15:58:38.774Z,99458.84
2022-09-24T16:01:41.898Z,99452.84
2022-09-24T16:04:44.287Z,99465.72
2022-09-24T16:07:46.573Z,99464.81
2022-09-24T16:10:48.844Z,99462.84
2022-09-24T16:13:51.196Z,99465.16
2022-09-24T16:16:53.256Z,99458.47
2022-09-24T16:19:55.307Z,99458.78
2022-09-24T16:22:57.367Z,99459.50
2022-09-24T16:26:00.640Z,99463.56
2022-09-24T16:29:03.450Z,99470.69
2022-09-24T16:32:05.569Z,99466.53
2022-09-24T16:35:11.023Z,99476.72
2022-09-24T16:38:13.775Z,99472.50
2022-09-24T16:41:17.023Z,99469.84
2022-09-24T16:44:19.370Z,99469.41
2022-09-24T16:47:21.624Z,99479.13
2022-09-24T16:50:26.961Z,99473.94
2022-09-24T16:53:29.104Z,99482.53
2022-09-24T16:56:31.219Z,99476.72
2022-09-24T16:59:33.606Z,99492.25
2022-09-24T17:02:36.146Z,99493.78
2022-09-24T17:05:40.669Z,99500.34
2022-09-24T17:09:01.648Z,99500.91
2022-09-24T17:12:03.858Z,99499.47
2022-09-24T17:15:07.889Z,99503.50
2022-09-24T17:18:10.004Z,99509.28
2022-09-24T17:21:12.628Z,99504.53
2022-09-24T17:24:19.220Z,99501.53
2022-09-24T17:27:23.898Z,99499.59
2022-09-24T17:30:26.859Z,99499.41
2022-09-24T17:33:42.876Z,99503.25
2022-09-24T17:36:45.840Z,99507.94
2022-09-24T17:39:48.040Z,99518.22
2022-09-24T17:42:50.095Z,99522.69
2022-09-24T17:46:03.385Z,99515.28
2022-09-24T17:49:05.969Z,99517.31
2022-09-24T17:52:08.302Z,99523.88
2022-09-24T17:55:10.519Z,99527.44
2022-09-24T17:58:12.583Z,99526.00
2022-09-24T18:01:21.173Z,99529.72
2022-09-24T18:04:25.701Z,99523.88
2022-09-24T18:07:27.814Z,99532.94
2022-09-24T18:10:29.860Z,99537.13
2022-09-24T18:13:35.320Z,99532.16
2022-09-24T18:16:37.444Z,99537.09
2022-09-24T18:19:39.527Z,99538.03
2022-09-24T18:22:41.570Z,99536.75
2022-09-24T18:25:43.633Z,99544.81
2022-09-24T18:28:54.005Z,99548.97
2022-09-24T18:31:56.067Z,99551.59
2022-09-24T18:34:58.825Z,99543.16
2022-09-24T18:38:01.115Z,99546.91
2022-09-24T18:41:20.857Z,99547.66
2022-09-24T18:44:22.982Z,99555.38
2022-09-24T18:47:25.070Z,99553.66
2022-09-24T18:50:29.021Z,99558.06
2022-09-24T18:53:31.516Z,99553.38
2022-09-24T18:56:33.850Z,99555.75
2022-09-24T18:59:44.348Z,99565.16
2022-09-24T19:02:46.506Z,99564.13
2022-09-24T19:05:51.474Z,99561.53
2022-09-24T19:08:53.546Z,99560.88
2022-09-24T19:11:56.028Z,99560.09
2022-09-24T19:14:58.727Z,99558.03
2022-09-24T19:18:00.755Z,99558.44
2022-09-24T19:21:06.483Z,99560.22
2022-09-24T19:24:09.916Z,99556.25
2022-09-24T19:27:12.030Z,99553.78
2022-09-24T19:30:14.141Z,99554.34
2022-09-24T19:33:16.995Z,99555.13
2022-09-24T19:36:19.713Z,99558.41
2022-09-24T19:39:21.826Z,99561.88
2022-09-24T19:42:26.682Z,99555.50
2022-09-24T19:45:29.920Z,99557.13
2022-09-24T19:48:32.604Z,99558.56
2022-09-24T19:51:35.010Z,99555.13
2022-09-24T19:54:37.549Z,99568.13
2022-09-24T19:57:40.183Z,99567.53
2022-09-24T20:00:43.109Z,99560.41
2022-09-24T20:03:45.211Z,99562.84
2022-09-24T20:06:47.875Z,99566.34
2022-09-24T20:09:49.924Z,99564.91
2022-09-24T20:12:52.378Z,99558.78
2022-09-24T20:15:58.830Z,99553.28
2022-09-24T20:19:01.717Z,99555.69
2022-09-24T20:22:03.948Z,99560.41
2022-09-24T20:25:06.779Z,99561.84
2022-09-24T20:28:14.090Z,99563.47
2022-09-24T20:31:18.161Z,99555.94
2022-09-24T20:34:33.591Z,99565.06
2022-09-24T20:37:36.012Z,99558.97
2022-09-24T20:40:39.825Z,99559.63
2022-09-24T20:43:42.031Z,99557.78
2022-09-24T20:46:44.153Z,99551.69
2022-09-24T20:49:46.235Z,99555.13
2022-09-24T20:52:48.327Z,99554.53
2022-09-24T20:55:53.597Z,99552.72
2022-09-24T20:58:55.712Z,99551.44
2022-09-24T21:01:57.895Z,99551.84
2022-09-24T21:05:00.022Z,99549.63
2022-09-24T21:08:08.583Z,99542.94
2022-09-24T21:11:13.675Z,99545.97
2022-09-24T21:14:15.739Z,99552.22
2022-09-24T21:17:18.595Z,99545.03
2022-09-24T21:20:20.644Z,99543.81
2022-09-24T21:23:24.984Z,99543.63
2022-09-24T21:26:30.750Z,99543.69
2022-09-24T21:29:32.815Z,99541.28
2022-09-24T21:32:35.758Z,99546.81
2022-09-24T21:35:37.827Z,99554.53
2022-09-24T21:38:39.906Z,99557.56
2022-09-24T21:41:42.176Z,99550.41
2022-09-24T21:44:44.280Z,99548.78
2022-09-24T21:47:46.348Z,99551.00
2022-09-24T21:50:48.500Z,99547.97
2022-09-24T21:53:52.534Z,99545.88
2022-09-24T21:56:54.603Z,99540.94
2022-09-24T21:59:59.455Z,99549.06
2022-09-24T22:03:01.541Z,99538.66
2022-09-24T22:06:04.055Z,99539.34
2022-09-24T22:09:06.870Z,99553.41
2022-09-24T22:12:09.700Z,99555.22
2022-09-24T22:15:11.902Z,99557.06
2022-09-24T22:18:14.086Z,99548.50
2022-09-24T22:21:16.186Z,99556.22
2022-09-24T22:24:18.228Z,99552.78
2022-09-24T22:27:20.274Z,99548.94
2022-09-24T22:30:22.320Z,99545.31
2022-09-24T22:33:43.229Z,99549.19
2022-09-24T22:36:45.405Z,99549.78
2022-09-24T22:39:47.444Z,99540.19
2022-09-24T22:42:49.541Z,99549.13
2022-09-24T22:46:00.507Z,99554.19
2022-09-24T22:49:03.435Z,99558.22
2022-09-24T22:52:05.707Z,99558.94
2022-09-24T22:55:08.488Z,99567.41
2022-09-24T22:58:10.612Z,99560.91
2022-09-24T23:01:21.639Z,99553.06
2022-09-24T23:04:24.160Z,99557.00
2022-09-24T23:07:26.288Z,99563.03
2022-09-24T23:10:30.005Z,99560.22
2022-09-24T23:13:32.840Z,99553.22
2022-09-24T23:16:36.218Z,99548.16
2022-09-24T23:19:51.312Z,99551.69
2022-09-24T23:22:53.348Z,99540.44
2022-09-24T23:26:05.428Z,99530.88
2022-09-24T23:29:08.627Z,99536.19
2022-09-24T23:32:11.517Z,99538.22
2022-09-24T23:35:13.615Z,99533.19
2022-09-24T23:38:15.677Z,99537.88
2022-09-24T23:41:17.713Z,99522.59
2022-09-24T23:44:19.886Z,99525.44
2022-09-24T23:47:22.571Z,99511.78
2022-09-24T23:50:24.775Z,99512.56
2022-09-24T23:53:27.017Z,99516.44
2022-09-24T23:56:29.117Z,99511.00
2022-09-24T23:59:31.303Z,99509.72
